createdAt,value
2019-03-19T00:01:57.237Z,53.96
2019-03-19T00:04:24.110Z,53.98
2019-03-19T00:06:54.215Z,54.08
2019-03-19T00:09:21.171Z,53.87
2019-03-19T00:11:47.770Z,53.72
2019-03-19T00:14:16.638Z,53.65
2019-03-19T00:16:45.163Z,54.51
2019-03-19T00:22:04.221Z,54.95
2019-03-19T00:24:33.380Z,55.22
2019-03-19T00:27:02.285Z,55.34
2019-03-19T00:29:30.050Z,55.15
2019-03-19T00:32:03.366Z,55.05
2019-03-19T00:34:33.530Z,54.83
2019-03-19T00:37:02.700Z,54.84
2019-03-19T00:39:31.708Z,54.85
2019-03-19T00:41:59.317Z,54.96
2019-03-19T00:44:31.023Z,55.05
2019-03-19T00:47:02.726Z,54.96
2019-03-19T00:49:34.195Z,55.05
2019-03-19T00:52:01.377Z,54.95
2019-03-19T00:54:34.582Z,54.20
2019-03-19T00:57:05.494Z,54.51
2019-03-19T00:59:34.984Z,53.93
2019-03-19T01:02:09.322Z,54.23
2019-03-19T01:04:35.823Z,53.60
2019-03-19T01:07:04.984Z,54.62
2019-03-19T01:09:32.780Z,55.06
2019-03-19T01:12:03.984Z,54.84
2019-03-19T01:14:32.419Z,54.53
2019-03-19T01:17:01.763Z,54.80
2019-03-19T01:19:31.347Z,55.23
2019-03-19T01:21:59.324Z,54.54
2019-03-19T01:24:27.983Z,54.59
2019-03-19T01:26:54.837Z,54.63
2019-03-19T01:29:31.805Z,55.29
2019-03-19T01:31:55.671Z,55.18
2019-03-19T01:34:22.465Z,54.85
2019-03-19T01:36:52.632Z,54.46
2019-03-19T01:39:26.096Z,54.19
2019-03-19T01:41:56.809Z,54.14
2019-03-19T01:44:37.554Z,53.85
2019-03-19T01:47:04.269Z,53.88
2019-03-19T01:49:34.624Z,53.62
2019-03-19T01:52:04.627Z,53.67
2019-03-19T01:54:32.786Z,53.74
2019-03-19T01:57:00.390Z,53.68
2019-03-19T01:59:28.445Z,53.47
2019-03-19T02:01:55.633Z,53.89
2019-03-19T02:04:23.480Z,54.44
2019-03-19T02:06:52.539Z,54.86
2019-03-19T02:09:19.177Z,54.59
2019-03-19T02:11:45.809Z,53.98
2019-03-19T02:14:12.492Z,53.94
2019-03-19T02:16:39.374Z,53.81
2019-03-19T02:19:07.263Z,53.51
2019-03-19T02:21:33.899Z,53.28
2019-03-19T02:24:00.509Z,53.57
2019-03-19T02:26:27.411Z,53.93
2019-03-19T02:28:54.214Z,53.87
2019-03-19T02:31:20.843Z,53.98
2019-03-19T02:33:47.794Z,54.21
2019-03-19T02:36:15.810Z,54.11
2019-03-19T02:38:42.503Z,54.42
2019-03-19T02:41:09.398Z,54.33
2019-03-19T02:43:36.400Z,54.30
2019-03-19T02:46:03.301Z,54.03
2019-03-19T02:48:29.983Z,53.86
2019-03-19T02:50:56.636Z,53.49
2019-03-19T02:53:23.318Z,53.09
2019-03-19T02:55:50.073Z,53.38
2019-03-19T02:58:16.965Z,53.96
2019-03-19T03:00:43.685Z,53.84
2019-03-19T03:03:10.388Z,53.94
2019-03-19T03:05:37.114Z,54.25
2019-03-19T03:08:04.004Z,54.41
2019-03-19T03:10:30.809Z,54.55
2019-03-19T03:13:02.071Z,54.43
2019-03-19T03:15:34.590Z,54.34
2019-03-19T03:18:06.941Z,54.36
2019-03-19T03:20:36.430Z,54.00
2019-03-19T03:23:05.336Z,54.02
2019-03-19T03:25:33.037Z,53.82
2019-03-19T03:28:02.433Z,53.96
2019-03-19T03:30:32.188Z,54.34
2019-03-19T03:33:02.890Z,54.93
2019-03-19T03:35:30.944Z,54.90
2019-03-19T03:37:58.589Z,54.97
2019-03-19T03:40:26.317Z,54.66
2019-03-19T03:42:53.544Z,54.28
2019-03-19T03:45:24.779Z,54.57
2019-03-19T03:47:54.497Z,54.31
2019-03-19T03:50:24.753Z,53.98
2019-03-19T03:52:57.936Z,53.83
2019-03-19T03:55:25.415Z,53.77
2019-03-19T03:58:00.051Z,53.67
2019-03-19T04:00:29.788Z,53.63
2019-03-19T04:03:02.636Z,53.83
2019-03-19T04:05:32.380Z,53.86
2019-03-19T04:10:44.491Z,54.06
2019-03-19T04:13:11.307Z,54.39
2019-03-19T04:15:38.186Z,54.33
2019-03-19T04:18:05.112Z,53.86
2019-03-19T04:20:31.823Z,53.18
2019-03-19T04:22:58.570Z,53.88
2019-03-19T04:25:25.330Z,53.98
2019-03-19T04:27:52.002Z,54.06
2019-03-19T04:30:18.869Z,54.38
2019-03-19T04:32:45.770Z,54.28
2019-03-19T04:35:12.599Z,54.29
2019-03-19T04:37:39.451Z,54.36
2019-03-19T04:40:06.332Z,54.42
2019-03-19T04:42:32.914Z,54.18
2019-03-19T04:44:59.823Z,54.07
2019-03-19T04:47:27.881Z,54.24
2019-03-19T04:49:54.576Z,54.44
2019-03-19T04:52:21.195Z,54.22
2019-03-19T04:54:48.090Z,54.51
2019-03-19T04:57:26.028Z,54.44
2019-03-19T04:59:43.237Z,54.69
2019-03-19T05:02:09.899Z,54.71
2019-03-19T05:04:36.493Z,54.69
2019-03-19T05:07:03.731Z,54.56
2019-03-19T05:09:30.506Z,54.48
2019-03-19T05:11:57.155Z,54.20
2019-03-19T05:14:25.095Z,54.25
2019-03-19T05:16:51.793Z,53.81
2019-03-19T05:19:18.370Z,53.95
2019-03-19T05:21:44.983Z,54.07
2019-03-19T05:24:11.662Z,53.75
2019-03-19T05:26:38.366Z,53.54
2019-03-19T05:29:05.265Z,54.07
2019-03-19T05:31:31.915Z,54.10
2019-03-19T05:33:58.537Z,53.93
2019-03-19T05:36:25.568Z,53.36
2019-03-19T05:38:53.204Z,53.45
2019-03-19T05:41:21.079Z,53.86
2019-03-19T05:43:47.681Z,53.75
2019-03-19T05:46:14.442Z,54.22
2019-03-19T05:48:41.253Z,54.16
2019-03-19T05:51:08.178Z,55.04
2019-03-19T05:53:36.104Z,55.43
2019-03-19T05:56:04.266Z,55.18
2019-03-19T05:58:30.870Z,54.85
2019-03-19T06:00:57.821Z,54.47
2019-03-19T06:03:24.754Z,54.30
2019-03-19T06:05:51.971Z,54.29
2019-03-19T06:08:24.492Z,53.83
2019-03-19T06:13:39.026Z,53.59
2019-03-19T06:16:09.667Z,53.59
2019-03-19T06:18:36.956Z,53.14
2019-03-19T06:21:04.272Z,53.68
2019-03-19T06:23:35.020Z,53.37
2019-03-19T06:26:10.281Z,53.04
2019-03-19T06:31:24.123Z,53.04
2019-03-19T06:33:53.932Z,53.84
2019-03-19T06:36:21.581Z,54.13
2019-03-19T06:38:52.115Z,54.03
2019-03-19T06:41:21.551Z,54.23
2019-03-19T06:43:52.221Z,53.43
2019-03-19T06:46:18.752Z,52.75
2019-03-19T06:48:50.327Z,52.83
2019-03-19T06:51:18.270Z,52.62
2019-03-19T06:53:49.469Z,52.58
2019-03-19T06:56:16.621Z,52.32
2019-03-19T06:58:44.242Z,52.12
2019-03-19T07:01:11.981Z,51.52
2019-03-19T07:03:57.486Z,51.00
2019-03-19T07:06:25.941Z,51.38
2019-03-19T07:08:52.863Z,50.99
2019-03-19T07:11:39.034Z,50.13
2019-03-19T07:14:08.791Z,49.51
2019-03-19T07:16:39.534Z,49.13
2019-03-19T07:19:09.030Z,49.12
2019-03-19T07:21:37.005Z,49.47
2019-03-19T07:24:21.198Z,49.91
2019-03-19T07:26:48.034Z,49.00
2019-03-19T07:29:18.961Z,50.23
2019-03-19T07:31:46.342Z,49.81
2019-03-19T07:34:18.325Z,48.13
2019-03-19T07:36:46.045Z,48.72
2019-03-19T07:42:00.784Z,48.89
2019-03-19T07:44:31.629Z,47.41
2019-03-19T07:46:58.846Z,48.18
2019-03-19T07:49:30.106Z,47.96
2019-03-19T07:51:56.779Z,47.77
2019-03-19T07:54:26.097Z,46.07
2019-03-19T07:56:53.733Z,46.14
2019-03-19T07:59:20.639Z,47.31
2019-03-19T08:01:51.840Z,46.95
2019-03-19T08:04:26.487Z,46.42
2019-03-19T08:06:54.400Z,46.63
2019-03-19T08:09:23.941Z,45.89
2019-03-19T08:11:53.099Z,45.30
2019-03-19T08:14:19.894Z,44.85
2019-03-19T08:16:49.508Z,44.31
2019-03-19T08:22:05.005Z,44.37
2019-03-19T08:24:33.761Z,44.41
2019-03-19T08:27:00.982Z,43.76
2019-03-19T08:29:30.559Z,43.83
2019-03-19T08:35:01.224Z,42.01
2019-03-19T08:37:29.129Z,43.77
2019-03-19T08:39:59.175Z,43.54
2019-03-19T08:42:29.220Z,43.91
2019-03-19T08:44:58.445Z,43.82
2019-03-19T08:47:33.130Z,43.86
2019-03-19T08:50:03.448Z,44.53
2019-03-19T08:52:30.312Z,44.01
2019-03-19T08:55:01.240Z,42.00
2019-03-19T08:57:30.151Z,41.47
2019-03-19T08:59:58.048Z,42.64
2019-03-19T09:02:25.754Z,42.41
2019-03-19T09:04:53.465Z,42.66
2019-03-19T09:07:24.662Z,41.95
2019-03-19T09:09:53.495Z,40.40
2019-03-19T09:12:20.256Z,41.80
2019-03-19T09:14:54.087Z,40.37
2019-03-19T09:17:21.638Z,39.92
2019-03-19T09:19:54.869Z,39.33
2019-03-19T09:22:29.583Z,38.68
2019-03-19T09:24:58.648Z,39.84
2019-03-19T09:27:28.187Z,40.60
2019-03-19T09:30:01.744Z,40.53
2019-03-19T09:32:34.959Z,41.37
2019-03-19T09:35:04.541Z,39.06
2019-03-19T09:37:32.736Z,40.19
2019-03-19T09:40:03.824Z,38.79
2019-03-19T09:42:38.114Z,38.45
2019-03-19T09:45:06.530Z,38.31
2019-03-19T09:47:38.581Z,38.20
2019-03-19T09:50:06.340Z,38.51
2019-03-19T09:52:37.718Z,37.70
2019-03-19T09:55:09.742Z,39.52
2019-03-19T09:57:41.526Z,38.28
2019-03-19T10:00:09.461Z,38.96
2019-03-19T10:02:43.692Z,38.65
2019-03-19T10:05:14.375Z,37.94
2019-03-19T10:07:44.535Z,38.33
2019-03-19T10:10:12.456Z,39.43
2019-03-19T10:12:43.317Z,38.27
2019-03-19T10:15:11.688Z,36.82
2019-03-19T10:17:42.269Z,38.28
2019-03-19T10:20:13.293Z,37.58
2019-03-19T10:22:41.122Z,37.69
2019-03-19T10:27:58.392Z,38.98
2019-03-19T10:30:26.379Z,37.07
2019-03-19T10:32:54.271Z,38.33
2019-03-19T10:35:21.719Z,37.80
2019-03-19T10:37:53.354Z,38.41
2019-03-19T10:40:21.235Z,38.67
2019-03-19T10:42:49.588Z,37.68
2019-03-19T10:45:20.549Z,37.57
2019-03-19T10:47:48.224Z,37.82
2019-03-19T10:50:14.644Z,39.07
2019-03-19T10:52:43.351Z,39.49
2019-03-19T10:55:13.930Z,39.04
2019-03-19T10:57:43.657Z,38.70
2019-03-19T11:00:11.103Z,38.67
2019-03-19T11:02:38.912Z,38.37
2019-03-19T11:05:07.347Z,37.45
2019-03-19T11:07:34.304Z,38.46
2019-03-19T11:10:01.235Z,37.09
2019-03-19T11:12:28.861Z,37.63
2019-03-19T11:14:55.615Z,37.73
2019-03-19T11:17:22.364Z,38.05
2019-03-19T11:19:49.818Z,38.36
2019-03-19T11:22:19.132Z,37.51
2019-03-19T11:24:45.951Z,38.35
2019-03-19T11:27:12.681Z,37.59
2019-03-19T11:29:39.353Z,37.79
2019-03-19T11:32:06.318Z,37.85
2019-03-19T11:34:33.740Z,37.73
2019-03-19T11:37:00.465Z,38.44
2019-03-19T11:39:27.102Z,38.22
2019-03-19T11:41:53.897Z,38.89
2019-03-19T11:44:20.907Z,37.99
2019-03-19T11:46:47.517Z,38.41
2019-03-19T11:49:14.172Z,37.58
2019-03-19T11:51:41.057Z,37.87
2019-03-19T11:54:09.026Z,38.46
2019-03-19T11:56:35.676Z,37.99
2019-03-19T11:59:02.432Z,37.59
2019-03-19T12:01:29.055Z,37.25
2019-03-19T12:03:56.014Z,37.71
2019-03-19T12:06:22.916Z,37.40
2019-03-19T12:09:00.291Z,36.16
2019-03-19T12:11:28.316Z,36.42
2019-03-19T12:14:00.706Z,36.17
2019-03-19T12:16:27.410Z,36.13
2019-03-19T12:18:54.132Z,36.26
2019-03-19T12:21:21.047Z,36.90
2019-03-19T12:23:47.716Z,36.45
2019-03-19T12:26:14.710Z,36.37
2019-03-19T12:28:41.649Z,36.25
2019-03-19T12:31:09.563Z,36.86
2019-03-19T12:33:40.793Z,35.54
2019-03-19T12:36:05.186Z,35.91
2019-03-19T12:38:31.801Z,36.05
2019-03-19T12:40:58.460Z,35.26
2019-03-19T12:43:25.166Z,35.07
2019-03-19T12:45:53.155Z,35.57
2019-03-19T12:48:20.096Z,36.17
2019-03-19T12:50:46.879Z,36.42
2019-03-19T12:53:13.820Z,35.85
2019-03-19T12:55:40.490Z,35.81
2019-03-19T12:58:07.158Z,36.54
2019-03-19T13:00:35.010Z,35.87
2019-03-19T13:03:01.842Z,36.28
2019-03-19T13:05:28.531Z,36.56
2019-03-19T13:07:55.207Z,36.26
2019-03-19T13:10:22.078Z,35.68
2019-03-19T13:12:48.823Z,36.28
2019-03-19T13:15:15.471Z,37.63
2019-03-19T13:17:42.132Z,38.49
2019-03-19T13:20:08.738Z,39.98
2019-03-19T13:22:35.712Z,40.29
2019-03-19T13:25:02.719Z,40.03
2019-03-19T13:27:29.327Z,39.94
2019-03-19T13:29:56.191Z,39.34
2019-03-19T13:32:22.997Z,38.93
2019-03-19T13:34:49.650Z,39.12
2019-03-19T13:37:16.496Z,39.18
2019-03-19T13:39:44.757Z,39.92
2019-03-19T13:42:11.414Z,39.90
2019-03-19T13:44:38.314Z,40.79
2019-03-19T13:47:06.165Z,41.02
2019-03-19T13:49:32.863Z,41.10
2019-03-19T13:51:59.775Z,41.04
2019-03-19T13:54:27.862Z,40.92
2019-03-19T13:56:54.652Z,39.01
2019-03-19T13:59:21.560Z,39.28
2019-03-19T14:01:48.201Z,37.22
2019-03-19T14:04:14.875Z,37.67
2019-03-19T14:06:42.068Z,37.50
2019-03-19T14:09:13.368Z,37.40
2019-03-19T14:11:40.316Z,37.40
2019-03-19T14:14:08.955Z,37.70
2019-03-19T14:16:39.557Z,37.00
2019-03-19T14:19:07.411Z,36.62
2019-03-19T14:21:34.878Z,36.98
2019-03-19T14:24:05.429Z,36.94
2019-03-19T14:26:39.060Z,39.36
2019-03-19T14:29:10.632Z,38.89
2019-03-19T14:31:38.508Z,39.42
2019-03-19T14:34:06.497Z,38.92
2019-03-19T14:36:34.988Z,38.32
2019-03-19T14:39:04.731Z,39.07
2019-03-19T14:41:32.039Z,39.94
2019-03-19T14:44:03.198Z,39.82
2019-03-19T14:46:32.220Z,39.56
2019-03-19T14:49:02.111Z,40.45
2019-03-19T14:51:36.172Z,40.78
2019-03-19T14:54:02.211Z,42.03
2019-03-19T14:56:30.819Z,42.31
2019-03-19T14:58:58.811Z,43.43
2019-03-19T15:01:28.937Z,45.27
2019-03-19T15:03:55.700Z,48.68
2019-03-19T15:06:22.553Z,47.62
2019-03-19T15:08:49.433Z,46.92
2019-03-19T15:11:16.310Z,49.24
2019-03-19T15:13:43.295Z,51.32
2019-03-19T15:16:10.126Z,51.53
2019-03-19T15:18:36.968Z,52.72
2019-03-19T15:21:03.616Z,52.98
2019-03-19T15:23:30.300Z,53.13
2019-03-19T15:25:59.253Z,52.75
2019-03-19T15:28:25.799Z,52.65
2019-03-19T15:30:52.504Z,51.72
2019-03-19T15:33:19.106Z,50.81
2019-03-19T15:35:45.730Z,50.93
2019-03-19T15:38:13.029Z,49.85
2019-03-19T15:40:39.660Z,50.46
2019-03-19T15:43:07.482Z,51.11
2019-03-19T15:45:34.298Z,51.82
2019-03-19T15:48:01.209Z,51.56
2019-03-19T15:50:27.788Z,52.38
2019-03-19T15:52:54.726Z,52.90
2019-03-19T15:55:21.434Z,53.22
2019-03-19T15:57:48.062Z,53.77
2019-03-19T16:00:14.879Z,53.82
2019-03-19T16:02:41.792Z,53.18
2019-03-19T16:05:08.710Z,52.53
2019-03-19T16:07:38.090Z,52.01
2019-03-19T16:10:06.437Z,52.53
2019-03-19T16:12:34.033Z,52.09
2019-03-19T16:17:50.653Z,51.64
2019-03-19T16:20:20.565Z,51.59
2019-03-19T16:22:51.494Z,51.42
2019-03-19T16:25:21.275Z,51.21
2019-03-19T16:27:56.721Z,50.97
2019-03-19T16:30:20.812Z,51.44
2019-03-19T16:32:49.431Z,51.98
2019-03-19T16:35:16.114Z,52.01
2019-03-19T16:37:48.959Z,52.35
2019-03-19T16:40:21.764Z,52.97
2019-03-19T16:42:50.098Z,52.51
2019-03-19T16:45:23.507Z,52.53
2019-03-19T16:47:51.934Z,52.06
2019-03-19T16:50:22.906Z,52.39
2019-03-19T16:52:52.283Z,52.76
2019-03-19T16:55:24.719Z,52.94
2019-03-19T16:57:53.623Z,53.66
2019-03-19T17:00:24.608Z,54.64
2019-03-19T17:02:52.755Z,54.84
2019-03-19T17:05:19.637Z,54.70
2019-03-19T17:07:46.402Z,54.46
2019-03-19T17:10:13.232Z,54.58
2019-03-19T17:12:41.960Z,55.23
2019-03-19T17:15:08.509Z,55.45
2019-03-19T17:17:35.418Z,56.35
2019-03-19T17:20:02.188Z,56.90
2019-03-19T17:22:28.856Z,56.72
2019-03-19T17:24:55.532Z,56.52
2019-03-19T17:27:23.080Z,56.03
2019-03-19T17:29:49.832Z,55.76
2019-03-19T17:32:16.477Z,55.80
2019-03-19T17:34:43.155Z,55.84
2019-03-19T17:37:09.828Z,55.74
2019-03-19T17:39:36.755Z,55.85
2019-03-19T17:42:03.378Z,56.22
2019-03-19T17:44:30.016Z,56.10
2019-03-19T17:46:57.092Z,56.65
2019-03-19T17:49:23.859Z,57.08
2019-03-19T17:51:50.811Z,58.34
2019-03-19T17:54:19.062Z,58.30
2019-03-19T17:56:45.681Z,57.93
2019-03-19T17:59:12.358Z,58.22
2019-03-19T18:01:39.305Z,58.19
2019-03-19T18:04:06.063Z,58.57
2019-03-19T18:06:32.983Z,58.66
2019-03-19T18:11:45.620Z,58.05
2019-03-19T18:14:12.220Z,58.28
2019-03-19T18:16:39.577Z,58.31
2019-03-19T18:19:06.701Z,57.98
2019-03-19T18:21:33.538Z,57.83
2019-03-19T18:24:00.530Z,57.97
2019-03-19T18:28:59.992Z,57.51
2019-03-19T18:31:27.060Z,58.00
2019-03-19T18:34:15.197Z,58.16
2019-03-19T18:36:43.735Z,58.87
2019-03-19T18:39:11.179Z,60.29
2019-03-19T18:41:37.949Z,60.75
2019-03-19T18:44:06.237Z,61.46
2019-03-19T18:46:32.889Z,60.73
2019-03-19T18:48:59.596Z,60.16
2019-03-19T18:51:26.631Z,59.45
2019-03-19T18:53:53.397Z,59.34
2019-03-19T18:56:20.063Z,58.87
2019-03-19T18:58:46.995Z,58.49
2019-03-19T19:01:13.721Z,58.42
2019-03-19T19:03:40.855Z,58.05
2019-03-19T19:06:07.755Z,57.52
2019-03-19T19:08:34.397Z,57.25
2019-03-19T19:11:01.103Z,56.90
2019-03-19T19:13:27.780Z,56.71
2019-03-19T19:15:54.605Z,56.36
2019-03-19T19:18:21.397Z,56.80
2019-03-19T19:20:48.498Z,56.86
2019-03-19T19:23:15.170Z,56.75
2019-03-19T19:25:41.940Z,57.14
2019-03-19T19:28:09.369Z,57.70
2019-03-19T19:30:36.275Z,58.16
2019-03-19T19:33:03.213Z,58.08
2019-03-19T19:35:30.061Z,58.09
2019-03-19T19:37:56.889Z,58.31
2019-03-19T19:40:23.509Z,57.90
2019-03-19T19:42:50.136Z,57.46
2019-03-19T19:45:17.359Z,57.25
2019-03-19T19:47:44.508Z,57.39
2019-03-19T19:50:11.817Z,57.33
2019-03-19T19:52:38.549Z,57.47
2019-03-19T19:55:05.197Z,57.57
2019-03-19T19:57:32.792Z,57.59
2019-03-19T20:00:01.748Z,57.36
2019-03-19T20:02:28.104Z,57.59
2019-03-19T20:05:03.003Z,57.67
2019-03-19T20:07:23.734Z,57.89
2019-03-19T20:09:50.695Z,57.68
2019-03-19T20:12:17.648Z,57.71
2019-03-19T20:14:46.935Z,57.68
2019-03-19T20:19:59.763Z,57.55
2019-03-19T20:22:32.429Z,57.59
2019-03-19T20:24:59.661Z,57.67
2019-03-19T20:27:26.765Z,57.49
2019-03-19T20:29:53.569Z,57.61
2019-03-19T20:32:20.216Z,57.51
2019-03-19T20:34:46.843Z,57.26
2019-03-19T20:37:13.738Z,57.36
2019-03-19T20:39:40.671Z,57.44
2019-03-19T20:42:07.596Z,57.91
2019-03-19T20:44:34.852Z,58.04
2019-03-19T20:47:01.493Z,58.15
2019-03-19T20:49:28.724Z,58.88
2019-03-19T20:51:55.536Z,59.09
2019-03-19T20:54:22.221Z,58.67
2019-03-19T20:56:49.445Z,58.63
2019-03-19T20:59:16.432Z,58.83
2019-03-19T21:01:43.116Z,58.98
2019-03-19T21:04:10.610Z,58.77
2019-03-19T21:06:37.564Z,59.05
2019-03-19T21:09:05.493Z,58.98
2019-03-19T21:11:32.182Z,58.32
2019-03-19T21:13:59.989Z,58.77
2019-03-19T21:16:29.380Z,58.69
2019-03-19T21:18:57.243Z,58.20
2019-03-19T21:21:24.140Z,57.91
2019-03-19T21:23:50.723Z,57.34
2019-03-19T21:26:17.476Z,57.02
2019-03-19T21:28:45.420Z,57.66
2019-03-19T21:31:12.017Z,58.55
2019-03-19T21:33:50.467Z,58.92
2019-03-19T21:36:08.471Z,58.60
2019-03-19T21:38:35.184Z,58.28
2019-03-19T21:41:02.288Z,58.08
2019-03-19T21:43:28.923Z,57.72
2019-03-19T21:45:55.519Z,57.46
2019-03-19T21:48:22.537Z,57.13
2019-03-19T21:50:49.244Z,56.62
2019-03-19T21:53:17.169Z,57.31
2019-03-19T21:55:46.422Z,58.00
2019-03-19T21:58:14.025Z,58.08
2019-03-19T22:00:41.753Z,58.12
2019-03-19T22:03:09.124Z,57.58
2019-03-19T22:05:36.722Z,57.62
2019-03-19T22:08:03.349Z,57.71
2019-03-19T22:10:30.783Z,57.54
2019-03-19T22:12:58.390Z,57.49
2019-03-19T22:15:25.016Z,58.42
2019-03-19T22:20:24.336Z,58.31
2019-03-19T22:22:51.120Z,57.88
2019-03-19T22:25:17.733Z,57.75
2019-03-19T22:27:45.563Z,57.66
2019-03-19T22:30:12.163Z,57.34
2019-03-19T22:32:39.108Z,57.09
2019-03-19T22:35:05.701Z,57.36
2019-03-19T22:37:32.349Z,57.65
2019-03-19T22:39:59.597Z,57.81
2019-03-19T22:42:26.203Z,57.51
2019-03-19T22:44:52.803Z,57.02
2019-03-19T22:47:19.456Z,56.92
2019-03-19T22:49:46.040Z,57.23
2019-03-19T22:52:12.918Z,57.24
2019-03-19T22:54:39.764Z,57.19
2019-03-19T22:57:06.634Z,57.38
2019-03-19T22:59:39.712Z,57.32
2019-03-19T23:02:07.099Z,56.81
2019-03-19T23:04:36.910Z,57.24
2019-03-19T23:07:07.385Z,57.25
2019-03-19T23:09:35.049Z,56.36
2019-03-19T23:12:01.953Z,56.58
2019-03-19T23:14:30.685Z,56.54
2019-03-19T23:17:04.903Z,56.93
2019-03-19T23:22:19.860Z,57.37
2019-03-19T23:24:49.332Z,57.36
2019-03-19T23:27:20.270Z,57.60
2019-03-19T23:29:51.634Z,57.97
2019-03-19T23:32:20.043Z,58.48
2019-03-19T23:34:51.067Z,57.56
2019-03-19T23:40:05.257Z,57.50
2019-03-19T23:42:33.076Z,57.04
2019-03-19T23:45:05.673Z,57.39
2019-03-19T23:47:34.251Z,57.38
2019-03-19T23:50:03.931Z,57.18
2019-03-19T23:52:32.338Z,57.11
2019-03-19T23:55:03.302Z,56.96
2019-03-19T23:57:34.717Z,56.99
